Eendracht — PDVN — position and weather

sailwx.info

Track history (hours):
 
Tides and Currents Weather Stations Pressure Air Temp Water Temp Dewpoint Dewpoint Depression Visibility Wind Speed Wind Dir Waves Ship Positions

Eendracht (Netherlands)

Last reported at 2015-Apr-21 09:34 UTC. Time now 2015-Apr-21 09:47 UTC.
Position N 51°54' E 004°28'.

Length 59 m; beam 12 m; draft 5 m.

MMSI: 244543000.

Date/timePositionNaut miles runAvg speedWind from/ knotsBaromVisibWave heightAir tempDewpointWater temp
2015-Apr-21 09:34N 51°54' E 004°28'0 0.0
2015-Apr-21 08:33N 51°54' E 004°28'0 0.0
2015-Apr-21 07:33N 51°54' E 004°28'0 0.0
2015-Apr-21 06:33N 51°54' E 004°28'0 0.0
2015-Apr-21 05:33N 51°54' E 004°28'0 0.0
2015-Apr-21 04:33N 51°54' E 004°28'0 0.0
2015-Apr-21 03:33N 51°54' E 004°28'0 0.0
2015-Apr-21 02:33N 51°54' E 004°28'0 0.0
2015-Apr-21 01:33N 51°54' E 004°28'0 0.0
2015-Apr-21 00:33N 51°54' E 004°28'0 0.0
2015-Apr-20 23:33N 51°54' E 004°28'0 0.0
2015-Apr-20 22:33N 51°54' E 004°28'0 0.0
2015-Apr-20 21:33N 51°54' E 004°28'0 0.0
2015-Apr-20 20:33N 51°54' E 004°28'0 0.0
2015-Apr-20 19:33N 51°54' E 004°28'0 0.0
2015-Apr-20 18:30N 51°54' E 004°28'0 0.0
2015-Apr-20 17:30N 51°54' E 004°28'0 0.0
2015-Apr-20 16:33N 51°54' E 004°28'0 0.0
2015-Apr-20 15:33N 51°54' E 004°28'0 0.0
2015-Apr-20 14:33N 51°54' E 004°28'0 0.0
2015-Apr-20 13:30N 51°54' E 004°28'0 0.0
2015-Apr-20 12:30N 51°54' E 004°28'0 0.0
2015-Apr-20 11:30N 51°54' E 004°28'0 0.0
2015-Apr-20 10:30N 51°54' E 004°28'0 0.0
2015-Apr-20 09:33N 51°54' E 004°28'0 0.0
2015-Apr-20 08:33N 51°54' E 004°28'0 0.0
2015-Apr-20 07:33N 51°54' E 004°28'0 0.0
2015-Apr-20 06:33N 51°54' E 004°28'0 0.0
2015-Apr-20 05:33N 51°54' E 004°28'0 0.0
2015-Apr-20 04:33N 51°54' E 004°28'5 4.8
2015-Apr-20 03:33N 51°54' E 004°20'9 9.0
2015-Apr-20 02:33N 51°58' E 004°08'3 3.0
2015-Apr-20 01:32N 52°00' E 004°04'0 0.1
2015-Apr-20 00:32N 52°00' E 004°04'0 0.0
2015-Apr-19 23:32N 52°00' E 004°04'0 0.0
2015-Apr-19 22:32N 52°00' E 004°04'0 0.0
2015-Apr-19 21:29N 52°00' E 004°04'0 0.0
2015-Apr-19 20:32N 52°00' E 004°04'0 0.0
2015-Apr-19 19:32N 52°00' E 004°04'2 1.8
2015-Apr-19 18:33N 52°02' E 004°06'7 7.1
2015-Apr-19 17:33N 52°07' E 004°13'1 1.0
2015-Apr-19 16:33N 52°08' E 004°14'1 1.1
2015-Apr-19 15:33N 52°09' E 004°13'4 3.6
2015-Apr-19 14:33N 52°10' E 004°19'2 1.6
2015-Apr-19 13:33N 52°12' E 004°20'1 1.1
2015-Apr-19 12:33N 52°12' E 004°18'1 1.5
2015-Apr-19 11:33N 52°13' E 004°19'4 4.2
2015-Apr-19 10:33N 52°17' E 004°22'3 2.8
2015-Apr-19 09:33N 52°19' E 004°25'2 2.4
2015-Apr-19 08:33N 52°22' E 004°27'1 1.2
2015-Apr-19 07:33N 52°23' E 004°27'7 6.6
2015-Apr-19 06:34N 52°28' E 004°34'1 0.8
2015-Apr-19 05:31N 52°28' E 004°35'0 0.0
2015-Apr-19 04:31N 52°28' E 004°35'0 0.0
2015-Apr-19 03:31N 52°28' E 004°35'0 0.0
2015-Apr-19 02:31N 52°28' E 004°35'0 0.0
2015-Apr-19 01:28N 52°28' E 004°35'0 0.0
2015-Apr-19 00:31N 52°28' E 004°35'0 0.0
2015-Apr-18 23:31N 52°28' E 004°35'0 0.0
2015-Apr-18 22:28N 52°28' E 004°35'0 0.0
2015-Apr-18 21:31N 52°28' E 004°35'0 0.0
2015-Apr-18 20:33N 52°28' E 004°35'0 0.0
2015-Apr-18 19:31N 52°28' E 004°35'0 0.0
2015-Apr-18 18:31N 52°28' E 004°35'0 0.0
2015-Apr-18 17:31N 52°28' E 004°35'0 0.0
2015-Apr-18 16:31N 52°28' E 004°35'2 2.5
2015-Apr-18 15:33N 52°28' E 004°31'6 6.4
2015-Apr-18 14:33N 52°22' E 004°26'6 6.4
2015-Apr-18 13:33N 52°16' E 004°21'6 6.3
2015-Apr-18 12:33N 52°11' E 004°16'3 2.7
2015-Apr-18 11:33N 52°09' E 004°14'1 0.6
2015-Apr-18 10:33N 52°08' E 004°14'1 1.0
2015-Apr-18 09:33N 52°09' E 004°13'1 0.8
2015-Apr-18 08:33N 52°09' E 004°13'6 5.5
2015-Apr-18 07:33N 52°13' E 004°06'1 0.9
2015-Apr-18 06:33N 52°12' E 004°06'4 4.1
2015-Apr-18 05:33N 52°09' E 004°10'9 9.2
2015-Apr-18 04:33N 52°13' E 003°56'9 9.3
2015-Apr-18 03:33N 52°16' E 003°42'20 8.2
2015-Apr-18 01:06N 52°21' E 003°10'8 7.9
2015-Apr-18 00:04N 52°23' E 002°57'25 8.7
2015-Apr-17 21:15N 52°35' E 002°22'1210.5
2015-Apr-17 20:04N 52°43' E 002°07'611.5
2015-Apr-17 19:33N 52°47' E 001°59'68 8.4
2015-Apr-17 11:25N 52°10' E 003°33'910.3
2015-Apr-17 10:33N 52°06' E 003°47'10 9.8
2015-Apr-17 09:33N 52°03' E 004°02'4 3.9
2015-Apr-17 08:33N 51°59' E 004°04'7 7.2
2015-Apr-17 07:33N 51°55' E 004°14'7 6.6
2015-Apr-17 06:34N 51°54' E 004°24'2 1.9
2015-Apr-17 05:28N 51°54' E 004°28'0 0.0
2015-Apr-17 04:31N 51°54' E 004°28'0 0.0
2015-Apr-17 03:31N 51°54' E 004°28'0 0.0
2015-Apr-17 02:31N 51°54' E 004°28'0 0.0
2015-Apr-17 01:31N 51°54' E 004°28'0 0.0
2015-Apr-17 00:31N 51°54' E 004°28'0 0.0
2015-Apr-16 23:31N 51°54' E 004°28'0 0.0
2015-Apr-16 22:31N 51°54' E 004°28'0 0.0
2015-Apr-16 21:31N 51°54' E 004°28'0 0.0
2015-Apr-16 20:31N 51°54' E 004°28'0 0.0
2015-Apr-16 19:34N 51°54' E 004°28'0 0.0
2015-Apr-16 18:30N 51°54' E 004°28'0 0.0
2015-Apr-16 17:33N 51°54' E 004°28'0 0.0
2015-Apr-16 16:33N 51°54' E 004°28'0 0.0
2015-Apr-16 15:33N 51°54' E 004°28'0 0.0
2015-Apr-16 14:33N 51°54' E 004°28'0 0.0
2015-Apr-16 13:33N 51°54' E 004°28'11 5.3
2015-Apr-16 11:33N 51°57' E 004°11'6 5.9
2015-Apr-16 10:33N 51°60' E 004°03'1 0.8
2015-Apr-16 09:32N 52°00' E 004°04'0 0.0
2015-Apr-16 08:32N 52°00' E 004°04'0 0.0
2015-Apr-16 07:32N 52°00' E 004°04'0 0.0
2015-Apr-16 06:32N 52°00' E 004°04'0 0.0
2015-Apr-16 05:33N 52°00' E 004°04'1 0.9
2015-Apr-16 04:33N 52°01' E 004°04'5 4.7
2015-Apr-16 03:33N 52°06' E 004°06'4 4.1
2015-Apr-16 02:33N 52°09' E 004°10'4 4.0
2015-Apr-16 01:34N 52°13' E 004°12'4 3.7
2015-Apr-16 00:33N 52°16' E 004°15'3 3.1
2015-Apr-15 23:34N 52°19' E 004°17'4 4.1
2015-Apr-15 22:33N 52°23' E 004°20'6 5.7
2015-Apr-15 21:33N 52°27' E 004°25'8 7.8
2015-Apr-15 20:33N 52°35' E 004°30'8 7.9
2015-Apr-15 19:33N 52°42' E 004°33'8 8.2
2015-Apr-15 18:33N 52°50' E 004°36'8 8.4
2015-Apr-15 17:34N 52°58' E 004°42'6 5.8
2015-Apr-15 16:31N 53°01' E 004°51'0 0.0
2015-Apr-15 15:28N 53°01' E 004°51'0 0.0
2015-Apr-15 14:28N 53°01' E 004°51'0 0.0
2015-Apr-15 13:31N 53°01' E 004°51'0 0.0
2015-Apr-15 12:31N 53°01' E 004°51'2 1.6
2015-Apr-15 11:33N 53°00' E 004°49'1 0.6
2015-Apr-15 10:34N 52°60' E 004°49'0 0.3
2015-Apr-15 09:33N 52°59' E 004°48'1 1.0
2015-Apr-15 08:34N 53°00' E 004°49'0 0.5
2015-Apr-15 07:33N 53°01' E 004°50'2 2.3
2015-Apr-15 06:33N 52°59' E 004°48'1 1.3
2015-Apr-15 05:29N 52°57' E 004°47'0 0.0
2015-Apr-15 04:32N 52°57' E 004°47'0 0.0
2015-Apr-15 03:29N 52°57' E 004°47'0 0.0
2015-Apr-15 02:32N 52°57' E 004°47'0 0.0
2015-Apr-15 01:29N 52°57' E 004°47'0 0.0
2015-Apr-15 00:32N 52°57' E 004°47'0 0.0
2015-Apr-14 23:32N 52°57' E 004°47'0 0.0
2015-Apr-14 22:32N 52°57' E 004°47'0 0.0
2015-Apr-14 21:32N 52°57' E 004°47'0 0.0
2015-Apr-14 20:32N 52°57' E 004°47'0 0.0
2015-Apr-14 19:32N 52°57' E 004°47'0 0.0
2015-Apr-14 18:32N 52°57' E 004°47'0 0.0
2015-Apr-14 17:32N 52°57' E 004°47'0 0.0
2015-Apr-14 16:32N 52°57' E 004°47'0 0.0
2015-Apr-14 15:34N 52°57' E 004°47'5 4.6
2015-Apr-14 14:34N 53°01' E 004°51'1 1.1
2015-Apr-14 13:33N 53°00' E 004°50'4 4.1
2015-Apr-14 12:33N 52°58' E 004°44'7 7.1
2015-Apr-14 11:33N 52°55' E 004°34'3 3.4
2015-Apr-14 10:33N 52°53' E 004°29'7 6.9
2015-Apr-14 09:33N 52°46' E 004°26'6 5.8
2015-Apr-14 08:34N 52°41' E 004°22'5 4.7
2015-Apr-14 07:33N 52°36' E 004°20'5 4.5
2015-Apr-14 06:33N 52°32' E 004°23'2 2.3
2015-Apr-14 05:33N 52°30' E 004°24'5 5.1
2015-Apr-14 04:33N 52°25' E 004°22'5 4.9
2015-Apr-14 03:33N 52°21' E 004°19'5 4.7
2015-Apr-14 02:33N 52°16' E 004°16'5 4.6
2015-Apr-14 01:33N 52°12' E 004°15'4 4.4
2015-Apr-14 00:33N 52°07' E 004°15'1 1.5
2015-Apr-13 23:34N 52°09' E 004°14'0 0.1
2015-Apr-13 22:34N 52°08' E 004°14'0 0.3
2015-Apr-13 21:34N 52°08' E 004°14'0 0.5
2015-Apr-13 20:33N 52°08' E 004°14'1 1.0
2015-Apr-13 19:33N 52°09' E 004°13'1 0.9
2015-Apr-13 18:33N 52°08' E 004°14'0 0.1
2015-Apr-13 17:34N 52°08' E 004°14'1 0.8
2015-Apr-13 16:34N 52°09' E 004°13'0 0.1
2015-Apr-13 15:33N 52°09' E 004°14'1 1.3
2015-Apr-13 14:33N 52°08' E 004°13'3 3.2
2015-Apr-13 13:33N 52°04' E 004°12'0 0.3
2015-Apr-13 12:33N 52°05' E 004°12'0 0.1
2015-Apr-13 11:34N 52°05' E 004°12'3 3.4
2015-Apr-13 10:33N 52°02' E 004°08'4 3.9
2015-Apr-13 09:33N 51°59' E 004°04'6 6.3
2015-Apr-13 08:33N 51°56' E 004°12'5 5.4
2015-Apr-13 07:33N 51°54' E 004°20'5 4.6
2015-Apr-13 06:33N 51°54' E 004°28'0 0.0
2015-Apr-13 05:33N 51°54' E 004°28'0 0.0
2015-Apr-13 04:33N 51°54' E 004°28'0 0.0
2015-Apr-13 03:33N 51°54' E 004°28'0 0.0
2015-Apr-13 02:33N 51°54' E 004°28'0 0.0
2015-Apr-13 01:33N 51°54' E 004°28'0 0.0
2015-Apr-13 00:33N 51°54' E 004°28'0 0.0
2015-Apr-12 23:33N 51°54' E 004°28'0 0.0
2015-Apr-12 22:33N 51°54' E 004°28'0 0.0
2015-Apr-12 21:33N 51°54' E 004°28'0 0.0
2015-Apr-12 20:33N 51°54' E 004°28'0 0.0
2015-Apr-12 19:33N 51°54' E 004°28'0 0.0
2015-Apr-12 18:33N 51°54' E 004°28'0 0.0
2015-Apr-12 17:33N 51°54' E 004°28'0 0.0
2015-Apr-12 16:33N 51°54' E 004°28'0 0.0
2015-Apr-12 15:33N 51°54' E 004°28'0 0.1
2015-Apr-12 14:33N 51°54' E 004°27'6 5.8
2015-Apr-12 13:33N 51°54' E 004°18'6 5.6
2015-Apr-12 12:33N 51°57' E 004°11'4 4.4
2015-Apr-12 11:33N 51°59' E 004°04'5 5.4
2015-Apr-12 10:33N 52°04' E 004°06'6 6.0
2015-Apr-12 09:33N 52°10' E 004°10'2 1.6
2015-Apr-12 08:33N 52°10' E 004°13'2 1.7
2015-Apr-12 07:33N 52°10' E 004°10'2 1.6
2015-Apr-12 06:33N 52°08' E 004°10'2 2.2
2015-Apr-12 05:33N 52°07' E 004°14'2 1.7
2015-Apr-12 04:32N 52°06' E 004°16'0 0.0
2015-Apr-12 03:32N 52°06' E 004°16'0 0.0
2015-Apr-12 02:29N 52°06' E 004°16'0 0.0
2015-Apr-12 01:32N 52°06' E 004°16'0 0.0
2015-Apr-12 00:32N 52°06' E 004°16'0 0.0
2015-Apr-11 23:32N 52°06' E 004°16'0 0.0
2015-Apr-11 22:32N 52°06' E 004°16'0 0.0
2015-Apr-11 21:32N 52°06' E 004°16'0 0.0
2015-Apr-11 20:32N 52°06' E 004°16'0 0.0
2015-Apr-11 19:32N 52°06' E 004°16'0 0.0
2015-Apr-11 18:32N 52°06' E 004°16'0 0.0
2015-Apr-11 17:32N 52°06' E 004°16'0 0.0
2015-Apr-11 16:33N 52°06' E 004°16'2 2.3
2015-Apr-11 15:33N 52°07' E 004°12'5 5.2
2015-Apr-11 14:33N 52°04' E 004°05'4 4.4
2015-Apr-11 13:33N 51°60' E 004°03'8 8.4
2015-Apr-11 12:34N 51°55' E 004°14'5 5.2
2015-Apr-11 11:33N 51°54' E 004°22'3 3.2
2015-Apr-11 10:31N 51°54' E 004°28'  
Track history (hours):
 
Tides and Currents Weather Stations Pressure Air Temp Water Temp Dewpoint Dewpoint Depression Visibility Wind Speed Wind Dir Waves Ship Positions

Eendracht (Netherlands)

Last reported at 2015-Apr-21 09:34 UTC. Time now 2015-Apr-21 09:47 UTC.
Position N 51°54' E 004°28'.

Length 59 m; beam 12 m; draft 5 m.

MMSI: 244543000.

Date/timePositionNaut miles runAvg speedWind from/ knotsBaromVisibWave heightAir tempDewpointWater temp
2015-Apr-21 09:34N 51°54' E 004°28'0 0.0
2015-Apr-21 08:33N 51°54' E 004°28'0 0.0
2015-Apr-21 07:33N 51°54' E 004°28'0 0.0
2015-Apr-21 06:33N 51°54' E 004°28'0 0.0
2015-Apr-21 05:33N 51°54' E 004°28'0 0.0
2015-Apr-21 04:33N 51°54' E 004°28'0 0.0
2015-Apr-21 03:33N 51°54' E 004°28'0 0.0
2015-Apr-21 02:33N 51°54' E 004°28'0 0.0
2015-Apr-21 01:33N 51°54' E 004°28'0 0.0
2015-Apr-21 00:33N 51°54' E 004°28'0 0.0
2015-Apr-20 23:33N 51°54' E 004°28'0 0.0
2015-Apr-20 22:33N 51°54' E 004°28'0 0.0
2015-Apr-20 21:33N 51°54' E 004°28'0 0.0
2015-Apr-20 20:33N 51°54' E 004°28'0 0.0
2015-Apr-20 19:33N 51°54' E 004°28'0 0.0
2015-Apr-20 18:30N 51°54' E 004°28'0 0.0
2015-Apr-20 17:30N 51°54' E 004°28'0 0.0
2015-Apr-20 16:33N 51°54' E 004°28'0 0.0
2015-Apr-20 15:33N 51°54' E 004°28'0 0.0
2015-Apr-20 14:33N 51°54' E 004°28'0 0.0
2015-Apr-20 13:30N 51°54' E 004°28'0 0.0
2015-Apr-20 12:30N 51°54' E 004°28'0 0.0
2015-Apr-20 11:30N 51°54' E 004°28'0 0.0
2015-Apr-20 10:30N 51°54' E 004°28'0 0.0
2015-Apr-20 09:33N 51°54' E 004°28'0 0.0
2015-Apr-20 08:33N 51°54' E 004°28'0 0.0
2015-Apr-20 07:33N 51°54' E 004°28'0 0.0
2015-Apr-20 06:33N 51°54' E 004°28'0 0.0
2015-Apr-20 05:33N 51°54' E 004°28'0 0.0
2015-Apr-20 04:33N 51°54' E 004°28'5 4.8
2015-Apr-20 03:33N 51°54' E 004°20'9 9.0
2015-Apr-20 02:33N 51°58' E 004°08'3 3.0
2015-Apr-20 01:32N 52°00' E 004°04'0 0.1
2015-Apr-20 00:32N 52°00' E 004°04'0 0.0
2015-Apr-19 23:32N 52°00' E 004°04'0 0.0
2015-Apr-19 22:32N 52°00' E 004°04'0 0.0
2015-Apr-19 21:29N 52°00' E 004°04'0 0.0
2015-Apr-19 20:32N 52°00' E 004°04'0 0.0
2015-Apr-19 19:32N 52°00' E 004°04'2 1.8
2015-Apr-19 18:33N 52°02' E 004°06'7 7.1
2015-Apr-19 17:33N 52°07' E 004°13'1 1.0
2015-Apr-19 16:33N 52°08' E 004°14'1 1.1
2015-Apr-19 15:33N 52°09' E 004°13'4 3.6
2015-Apr-19 14:33N 52°10' E 004°19'2 1.6
2015-Apr-19 13:33N 52°12' E 004°20'1 1.1
2015-Apr-19 12:33N 52°12' E 004°18'1 1.5
2015-Apr-19 11:33N 52°13' E 004°19'4 4.2
2015-Apr-19 10:33N 52°17' E 004°22'3 2.8
2015-Apr-19 09:33N 52°19' E 004°25'2 2.4
2015-Apr-19 08:33N 52°22' E 004°27'1 1.2
2015-Apr-19 07:33N 52°23' E 004°27'7 6.6
2015-Apr-19 06:34N 52°28' E 004°34'1 0.8
2015-Apr-19 05:31N 52°28' E 004°35'0 0.0
2015-Apr-19 04:31N 52°28' E 004°35'0 0.0
2015-Apr-19 03:31N 52°28' E 004°35'0 0.0
2015-Apr-19 02:31N 52°28' E 004°35'0 0.0
2015-Apr-19 01:28N 52°28' E 004°35'0 0.0
2015-Apr-19 00:31N 52°28' E 004°35'0 0.0
2015-Apr-18 23:31N 52°28' E 004°35'0 0.0
2015-Apr-18 22:28N 52°28' E 004°35'0 0.0
2015-Apr-18 21:31N 52°28' E 004°35'0 0.0
2015-Apr-18 20:33N 52°28' E 004°35'0 0.0
2015-Apr-18 19:31N 52°28' E 004°35'0 0.0
2015-Apr-18 18:31N 52°28' E 004°35'0 0.0
2015-Apr-18 17:31N 52°28' E 004°35'0 0.0
2015-Apr-18 16:31N 52°28' E 004°35'2 2.5
2015-Apr-18 15:33N 52°28' E 004°31'6 6.4
2015-Apr-18 14:33N 52°22' E 004°26'6 6.4
2015-Apr-18 13:33N 52°16' E 004°21'6 6.3
2015-Apr-18 12:33N 52°11' E 004°16'3 2.7
2015-Apr-18 11:33N 52°09' E 004°14'1 0.6
2015-Apr-18 10:33N 52°08' E 004°14'1 1.0
2015-Apr-18 09:33N 52°09' E 004°13'1 0.8
2015-Apr-18 08:33N 52°09' E 004°13'6 5.5
2015-Apr-18 07:33N 52°13' E 004°06'1 0.9
2015-Apr-18 06:33N 52°12' E 004°06'4 4.1
2015-Apr-18 05:33N 52°09' E 004°10'9 9.2
2015-Apr-18 04:33N 52°13' E 003°56'9 9.3
2015-Apr-18 03:33N 52°16' E 003°42'20 8.2
2015-Apr-18 01:06N 52°21' E 003°10'8 7.9
2015-Apr-18 00:04N 52°23' E 002°57'25 8.7
2015-Apr-17 21:15N 52°35' E 002°22'1210.5
2015-Apr-17 20:04N 52°43' E 002°07'611.5
2015-Apr-17 19:33N 52°47' E 001°59'68 8.4
2015-Apr-17 11:25N 52°10' E 003°33'910.3
2015-Apr-17 10:33N 52°06' E 003°47'10 9.8
2015-Apr-17 09:33N 52°03' E 004°02'4 3.9
2015-Apr-17 08:33N 51°59' E 004°04'7 7.2
2015-Apr-17 07:33N 51°55' E 004°14'7 6.6
2015-Apr-17 06:34N 51°54' E 004°24'2 1.9
2015-Apr-17 05:28N 51°54' E 004°28'0 0.0
2015-Apr-17 04:31N 51°54' E 004°28'0 0.0
2015-Apr-17 03:31N 51°54' E 004°28'0 0.0
2015-Apr-17 02:31N 51°54' E 004°28'0 0.0
2015-Apr-17 01:31N 51°54' E 004°28'0 0.0
2015-Apr-17 00:31N 51°54' E 004°28'0 0.0
2015-Apr-16 23:31N 51°54' E 004°28'0 0.0
2015-Apr-16 22:31N 51°54' E 004°28'0 0.0
2015-Apr-16 21:31N 51°54' E 004°28'0 0.0
2015-Apr-16 20:31N 51°54' E 004°28'0 0.0
2015-Apr-16 19:34N 51°54' E 004°28'0 0.0
2015-Apr-16 18:30N 51°54' E 004°28'0 0.0
2015-Apr-16 17:33N 51°54' E 004°28'0 0.0
2015-Apr-16 16:33N 51°54' E 004°28'0 0.0
2015-Apr-16 15:33N 51°54' E 004°28'0 0.0
2015-Apr-16 14:33N 51°54' E 004°28'0 0.0
2015-Apr-16 13:33N 51°54' E 004°28'11 5.3
2015-Apr-16 11:33N 51°57' E 004°11'6 5.9
2015-Apr-16 10:33N 51°60' E 004°03'1 0.8
2015-Apr-16 09:32N 52°00' E 004°04'0 0.0
2015-Apr-16 08:32N 52°00' E 004°04'0 0.0
2015-Apr-16 07:32N 52°00' E 004°04'0 0.0
2015-Apr-16 06:32N 52°00' E 004°04'0 0.0
2015-Apr-16 05:33N 52°00' E 004°04'1 0.9
2015-Apr-16 04:33N 52°01' E 004°04'5 4.7
2015-Apr-16 03:33N 52°06' E 004°06'4 4.1
2015-Apr-16 02:33N 52°09' E 004°10'4 4.0
2015-Apr-16 01:34N 52°13' E 004°12'4 3.7
2015-Apr-16 00:33N 52°16' E 004°15'3 3.1
2015-Apr-15 23:34N 52°19' E 004°17'4 4.1
2015-Apr-15 22:33N 52°23' E 004°20'6 5.7
2015-Apr-15 21:33N 52°27' E 004°25'8 7.8
2015-Apr-15 20:33N 52°35' E 004°30'8 7.9
2015-Apr-15 19:33N 52°42' E 004°33'8 8.2
2015-Apr-15 18:33N 52°50' E 004°36'8 8.4
2015-Apr-15 17:34N 52°58' E 004°42'6 5.8
2015-Apr-15 16:31N 53°01' E 004°51'0 0.0
2015-Apr-15 15:28N 53°01' E 004°51'0 0.0
2015-Apr-15 14:28N 53°01' E 004°51'0 0.0
2015-Apr-15 13:31N 53°01' E 004°51'0 0.0
2015-Apr-15 12:31N 53°01' E 004°51'2 1.6
2015-Apr-15 11:33N 53°00' E 004°49'1 0.6
2015-Apr-15 10:34N 52°60' E 004°49'0 0.3
2015-Apr-15 09:33N 52°59' E 004°48'1 1.0
2015-Apr-15 08:34N 53°00' E 004°49'0 0.5
2015-Apr-15 07:33N 53°01' E 004°50'2 2.3
2015-Apr-15 06:33N 52°59' E 004°48'1 1.3
2015-Apr-15 05:29N 52°57' E 004°47'0 0.0
2015-Apr-15 04:32N 52°57' E 004°47'0 0.0
2015-Apr-15 03:29N 52°57' E 004°47'0 0.0
2015-Apr-15 02:32N 52°57' E 004°47'0 0.0
2015-Apr-15 01:29N 52°57' E 004°47'0 0.0
2015-Apr-15 00:32N 52°57' E 004°47'0 0.0
2015-Apr-14 23:32N 52°57' E 004°47'0 0.0
2015-Apr-14 22:32N 52°57' E 004°47'0 0.0
2015-Apr-14 21:32N 52°57' E 004°47'0 0.0
2015-Apr-14 20:32N 52°57' E 004°47'0 0.0
2015-Apr-14 19:32N 52°57' E 004°47'0 0.0
2015-Apr-14 18:32N 52°57' E 004°47'0 0.0
2015-Apr-14 17:32N 52°57' E 004°47'0 0.0
2015-Apr-14 16:32N 52°57' E 004°47'0 0.0
2015-Apr-14 15:34N 52°57' E 004°47'5 4.6
2015-Apr-14 14:34N 53°01' E 004°51'1 1.1
2015-Apr-14 13:33N 53°00' E 004°50'4 4.1
2015-Apr-14 12:33N 52°58' E 004°44'7 7.1
2015-Apr-14 11:33N 52°55' E 004°34'3 3.4
2015-Apr-14 10:33N 52°53' E 004°29'7 6.9
2015-Apr-14 09:33N 52°46' E 004°26'6 5.8
2015-Apr-14 08:34N 52°41' E 004°22'5 4.7
2015-Apr-14 07:33N 52°36' E 004°20'5 4.5
2015-Apr-14 06:33N 52°32' E 004°23'2 2.3
2015-Apr-14 05:33N 52°30' E 004°24'5 5.1
2015-Apr-14 04:33N 52°25' E 004°22'5 4.9
2015-Apr-14 03:33N 52°21' E 004°19'5 4.7
2015-Apr-14 02:33N 52°16' E 004°16'5 4.6
2015-Apr-14 01:33N 52°12' E 004°15'4 4.4
2015-Apr-14 00:33N 52°07' E 004°15'1 1.5
2015-Apr-13 23:34N 52°09' E 004°14'0 0.1
2015-Apr-13 22:34N 52°08' E 004°14'0 0.3
2015-Apr-13 21:34N 52°08' E 004°14'0 0.5
2015-Apr-13 20:33N 52°08' E 004°14'1 1.0
2015-Apr-13 19:33N 52°09' E 004°13'1 0.9
2015-Apr-13 18:33N 52°08' E 004°14'0 0.1
2015-Apr-13 17:34N 52°08' E 004°14'1 0.8
2015-Apr-13 16:34N 52°09' E 004°13'0 0.1
2015-Apr-13 15:33N 52°09' E 004°14'1 1.3
2015-Apr-13 14:33N 52°08' E 004°13'3 3.2
2015-Apr-13 13:33N 52°04' E 004°12'0 0.3
2015-Apr-13 12:33N 52°05' E 004°12'0 0.1
2015-Apr-13 11:34N 52°05' E 004°12'3 3.4
2015-Apr-13 10:33N 52°02' E 004°08'4 3.9
2015-Apr-13 09:33N 51°59' E 004°04'6 6.3
2015-Apr-13 08:33N 51°56' E 004°12'5 5.4
2015-Apr-13 07:33N 51°54' E 004°20'5 4.6
2015-Apr-13 06:33N 51°54' E 004°28'0 0.0
2015-Apr-13 05:33N 51°54' E 004°28'0 0.0
2015-Apr-13 04:33N 51°54' E 004°28'0 0.0
2015-Apr-13 03:33N 51°54' E 004°28'0 0.0
2015-Apr-13 02:33N 51°54' E 004°28'0 0.0
2015-Apr-13 01:33N 51°54' E 004°28'0 0.0
2015-Apr-13 00:33N 51°54' E 004°28'0 0.0
2015-Apr-12 23:33N 51°54' E 004°28'0 0.0
2015-Apr-12 22:33N 51°54' E 004°28'0 0.0
2015-Apr-12 21:33N 51°54' E 004°28'0 0.0
2015-Apr-12 20:33N 51°54' E 004°28'0 0.0
2015-Apr-12 19:33N 51°54' E 004°28'0 0.0
2015-Apr-12 18:33N 51°54' E 004°28'0 0.0
2015-Apr-12 17:33N 51°54' E 004°28'0 0.0
2015-Apr-12 16:33N 51°54' E 004°28'0 0.0
2015-Apr-12 15:33N 51°54' E 004°28'0 0.1
2015-Apr-12 14:33N 51°54' E 004°27'6 5.8
2015-Apr-12 13:33N 51°54' E 004°18'6 5.6
2015-Apr-12 12:33N 51°57' E 004°11'4 4.4
2015-Apr-12 11:33N 51°59' E 004°04'5 5.4
2015-Apr-12 10:33N 52°04' E 004°06'6 6.0
2015-Apr-12 09:33N 52°10' E 004°10'2 1.6
2015-Apr-12 08:33N 52°10' E 004°13'2 1.7
2015-Apr-12 07:33N 52°10' E 004°10'2 1.6
2015-Apr-12 06:33N 52°08' E 004°10'2 2.2
2015-Apr-12 05:33N 52°07' E 004°14'2 1.7
2015-Apr-12 04:32N 52°06' E 004°16'0 0.0
2015-Apr-12 03:32N 52°06' E 004°16'0 0.0
2015-Apr-12 02:29N 52°06' E 004°16'0 0.0
2015-Apr-12 01:32N 52°06' E 004°16'0 0.0
2015-Apr-12 00:32N 52°06' E 004°16'0 0.0
2015-Apr-11 23:32N 52°06' E 004°16'0 0.0
2015-Apr-11 22:32N 52°06' E 004°16'0 0.0
2015-Apr-11 21:32N 52°06' E 004°16'0 0.0
2015-Apr-11 20:32N 52°06' E 004°16'0 0.0
2015-Apr-11 19:32N 52°06' E 004°16'0 0.0
2015-Apr-11 18:32N 52°06' E 004°16'0 0.0
2015-Apr-11 17:32N 52°06' E 004°16'0 0.0
2015-Apr-11 16:33N 52°06' E 004°16'2 2.3
2015-Apr-11 15:33N 52°07' E 004°12'5 5.2
2015-Apr-11 14:33N 52°04' E 004°05'4 4.4
2015-Apr-11 13:33N 51°60' E 004°03'8 8.4
2015-Apr-11 12:34N 51°55' E 004°14'5 5.2
2015-Apr-11 11:33N 51°54' E 004°22'3 3.2
2015-Apr-11 10:31N 51°54' E 004°28'  

Dump ship's entire track history